Time;durP1;ratioP1;P1;durP2;ratioP2;P2;SDS_P1;SDS_P2;PMS_P1;PMS_P2;Temp;Humidity;BMP_temperature;BMP_pressure;BME280_temperature;BME280_humidity;BME280_pressure;Samples;Min_cycle;Max_cycle;Signal;HPM_P1;HPM_P2
2022/10/14 00:01:03;;;;;;;32.33;19.67;;;;;;;14.65;61.43;101298.34;5022542;27;97225;-65
2022/10/14 00:03:30;;;;;;;35.67;20.73;;;;;;;14.55;61.60;101297.91;5016998;28;98268;-65
2022/10/14 00:05:56;;;;;;;35.97;19.10;;;;;;;14.36;61.99;101292.47;5016608;28;99026;-66
2022/10/14 00:08:23;;;;;;;36.17;20.05;;;;;;;14.62;61.20;101286.06;5022363;28;98922;-65
2022/10/14 00:10:50;;;;;;;35.03;20.50;;;;;;;14.71;61.08;101284.78;5023336;27;97789;-66
2022/10/14 00:13:17;;;;;;;35.60;20.65;;;;;;;14.42;61.57;101272.78;5023994;28;98876;-65
2022/10/14 00:15:44;;;;;;;29.35;18.98;;;;;;;14.34;61.59;101280.16;5025321;28;99479;-66
2022/10/14 00:18:10;;;;;;;31.30;20.33;;;;;;;14.56;61.19;101274.84;5023292;28;99410;-65
2022/10/14 00:20:36;;;;;;;31.25;19.13;;;;;;;14.42;62.17;101275.44;5025027;27;98411;-66
2022/10/14 00:23:03;;;;;;;35.20;19.48;;;;;;;14.70;61.67;101275.94;5025017;28;99000;-66
2022/10/14 00:25:30;;;;;;;36.05;18.35;;;;;;;14.79;61.11;101281.78;5019196;28;98995;-66
2022/10/14 00:27:56;;;;;;;34.00;19.58;;;;;;;14.84;60.79;101285.09;5024265;28;99015;-66
2022/10/14 00:30:24;;;;;;;31.90;18.77;;;;;;;14.64;61.33;101278.88;5022860;28;97699;-66
2022/10/14 00:32:50;;;;;;;32.88;18.92;;;;;;;14.77;60.70;101281.00;5020416;27;98671;-66
2022/10/14 00:35:17;;;;;;;36.67;19.50;;;;;;;14.72;60.53;101279.41;5026303;28;99209;-66
2022/10/14 00:37:43;;;;;;;32.25;18.90;;;;;;;14.66;60.83;101273.47;5027561;28;99183;-67
2022/10/14 00:40:11;;;;;;;36.47;20.02;;;;;;;14.61;60.59;101273.69;5028127;27;98526;-66
2022/10/14 00:42:37;;;;;;;35.63;18.48;;;;;;;14.47;61.24;101270.78;5028494;28;98717;-66
2022/10/14 00:45:11;;;;;;;33.33;18.50;;;;;;;14.59;60.88;101275.53;5029317;27;99627;-65
2022/10/14 00:47:40;;;;;;;29.92;19.13;;;;;;;14.53;60.85;101273.16;5029040;28;98194;-66
2022/10/14 00:50:07;;;;;;;27.98;18.63;;;;;;;14.77;60.01;101270.38;5031213;27;98676;-67
2022/10/14 00:52:34;;;;;;;30.80;17.88;;;;;;;14.77;59.99;101275.69;5028929;28;97011;-65
2022/10/14 00:55:03;;;;;;;35.97;20.23;;;;;;;14.58;60.64;101278.28;5028319;27;101815;-66
2022/10/14 00:57:30;;;;;;;28.90;17.85;;;;;;;14.46;61.09;101284.13;5028903;28;99965;-66
2022/10/14 01:00:03;;;;;;;32.83;18.35;;;;;;;14.37;61.52;101272.06;5027680;27;96831;-66
2022/10/14 01:02:29;;;;;;;33.45;19.15;;;;;;;14.49;61.08;101279.56;5025232;27;97889;-66
2022/10/14 01:04:57;;;;;;;32.50;18.23;;;;;;;14.19;61.84;101279.00;5022866;27;98989;-65
2022/10/14 01:07:35;;;;;;;30.58;18.83;;;;;;;14.34;61.45;101277.50;5017657;28;99664;-66
2022/10/14 01:10:09;;;;;;;34.67;20.02;;;;;;;14.70;60.63;101278.59;5016154;28;98908;-66
2022/10/14 01:12:46;;;;;;;34.25;19.17;;;;;;;14.64;60.51;101265.56;5015587;28;97853;-66
2022/10/14 01:15:21;;;;;;;45.17;19.90;;;;;;;14.67;60.01;101277.88;5016627;28;101029;-66
2022/10/14 01:17:58;;;;;;;32.72;17.42;;;;;;;14.61;60.10;101272.84;5016288;28;99428;-66
2022/10/14 01:20:47;;;;;;;32.00;19.20;;;;;;;14.84;59.49;101269.13;5014925;28;99153;-66
2022/10/14 01:23:48;;;;;;;29.95;17.38;;;;;;;14.70;59.49;101267.94;5015909;28;96934;-66
2022/10/14 01:26:28;;;;;;;31.83;17.83;;;;;;;14.55;60.11;101268.66;5026904;28;99031;-65
2022/10/14 01:29:11;;;;;;;28.98;18.00;;;;;;;14.67;59.67;101257.47;5024405;28;98785;-66
2022/10/14 01:31:46;;;;;;;29.00;17.88;;;;;;;14.68;59.84;101263.66;5012559;28;98587;-66
2022/10/14 01:34:16;;;;;;;35.55;18.33;;;;;;;14.51;60.07;101261.72;5015179;28;99314;-65
2022/10/14 01:36:48;;;;;;;28.58;17.75;;;;;;;14.27;60.68;101257.44;5014826;28;99100;-66
2022/10/14 01:39:18;;;;;;;30.23;18.10;;;;;;;14.31;60.55;101256.34;5016429;28;99041;-66
2022/10/14 01:41:49;;;;;;;30.13;17.83;;;;;;;14.40;60.45;101253.34;5017324;28;98827;-66
2022/10/14 01:44:18;;;;;;;32.83;18.25;;;;;;;14.30;60.74;101252.88;5015749;28;98524;-66
2022/10/14 01:46:51;;;;;;;28.77;17.25;;;;;;;14.31;60.18;101243.94;5012432;28;99731;-67
2022/10/14 01:49:25;;;;;;;29.02;17.92;;;;;;;14.55;59.84;101252.69;5013106;28;98974;-65
2022/10/14 01:51:57;;;;;;;33.08;18.15;;;;;;;14.67;59.53;101244.16;5015716;28;97939;-66
2022/10/14 01:54:29;;;;;;;35.40;18.23;;;;;;;14.33;59.64;101252.72;5015808;28;98840;-66
2022/10/14 01:57:00;;;;;;;30.40;16.65;;;;;;;14.25;60.28;101249.50;5017840;28;98375;-66
2022/10/14 01:59:29;;;;;;;25.83;16.45;;;;;;;14.31;60.14;101248.38;5024537;27;99034;-66
2022/10/14 02:01:56;;;;;;;28.30;17.52;;;;;;;14.03;60.79;101245.19;5014539;28;98002;-66
2022/10/14 02:04:23;;;;;;;30.42;17.35;;;;;;;14.11;60.67;101249.22;5013516;28;97775;-65
2022/10/14 02:06:59;;;;;;;35.95;18.73;;;;;;;14.06;60.81;101253.88;5013246;28;99146;-65
2022/10/14 02:09:35;;;;;;;25.85;16.83;;;;;;;13.98;61.08;101253.31;5017277;28;98855;-65
2022/10/14 02:12:13;;;;;;;28.13;17.17;;;;;;;13.70;62.17;101244.78;5015539;28;96898;-65
2022/10/14 02:14:45;;;;;;;30.52;18.00;;;;;;;14.06;61.08;101242.38;5013335;28;98394;-65
2022/10/14 02:17:19;;;;;;;31.83;19.23;;;;;;;14.31;60.66;101243.06;5012780;28;98914;-64
2022/10/14 02:19:52;;;;;;;30.70;17.70;;;;;;;14.24;59.96;101250.44;5016793;28;99753;-65
2022/10/14 02:22:27;;;;;;;25.27;16.88;;;;;;;14.10;60.24;101247.53;5014128;28;98981;-66
2022/10/14 02:24:59;;;;;;;28.30;16.55;;;;;;;13.90;60.80;101256.31;5014058;28;96965;-65
2022/10/14 02:27:29;;;;;;;29.20;16.58;;;;;;;13.91;60.86;101265.16;5015513;28;99102;-65
2022/10/14 02:29:58;;;;;;;24.70;16.52;;;;;;;14.39;59.52;101264.91;5017281;27;97989;-65
2022/10/14 02:32:27;;;;;;;32.38;17.75;;;;;;;13.93;61.00;101263.28;5020627;28;97672;-65
2022/10/14 02:34:57;;;;;;;26.15;17.38;;;;;;;13.82;61.26;101261.09;5026939;28;97078;-65
2022/10/14 02:37:26;;;;;;;27.95;17.65;;;;;;;13.68;62.38;101257.25;5023064;27;97914;-66
2022/10/14 02:39:57;;;;;;;33.03;17.35;;;;;;;13.88;62.18;101267.94;5028084;28;99121;-67
2022/10/14 02:42:23;;;;;;;27.23;16.38;;;;;;;14.25;61.44;101265.47;5027567;27;97586;-67
2022/10/14 02:44:53;;;;;;;29.90;18.05;;;;;;;14.17;61.94;101253.44;5026186;28;96687;-66
2022/10/14 02:47:20;;;;;;;29.05;17.33;;;;;;;14.31;61.27;101269.66;5023753;28;99364;-66
2022/10/14 02:49:48;;;;;;;25.65;16.98;;;;;;;14.49;60.46;101266.25;5028107;28;99361;-66
2022/10/14 02:52:14;;;;;;;31.20;17.08;;;;;;;14.61;60.31;101267.50;5025427;27;97827;-66
2022/10/14 02:54:41;;;;;;;24.08;16.13;;;;;;;14.74;60.37;101264.25;5027920;28;96899;-65
2022/10/14 02:57:07;;;;;;;30.45;15.95;;;;;;;14.67;60.30;101262.78;5026789;28;98220;-66
2022/10/14 02:59:34;;;;;;;27.05;16.13;;;;;;;14.87;59.88;101259.25;5027578;28;98713;-65
2022/10/14 03:02:00;;;;;;;26.92;15.98;;;;;;;14.79;59.99;101256.03;5027461;28;97597;-66
2022/10/14 03:04:27;;;;;;;31.70;16.83;;;;;;;15.05;59.68;101247.75;5017334;28;97687;-66
2022/10/14 03:06:55;;;;;;;31.15;15.98;;;;;;;15.04;59.89;101242.47;5017423;28;99090;-66
2022/10/14 03:09:21;;;;;;;26.90;16.50;;;;;;;15.29;59.33;101236.91;5025995;27;99032;-65
2022/10/14 03:11:47;;;;;;;27.13;16.45;;;;;;;15.43;58.65;101240.63;5021227;27;97424;-66
2022/10/14 03:14:14;;;;;;;28.65;16.38;;;;;;;15.54;58.00;101227.72;5025575;28;97987;-66
2022/10/14 03:16:40;;;;;;;28.73;16.98;;;;;;;15.46;58.34;101234.28;5026151;28;98865;-66
2022/10/14 03:19:07;;;;;;;31.48;16.70;;;;;;;15.58;57.98;101230.22;5022327;28;98842;-66
2022/10/14 03:21:33;;;;;;;29.35;16.38;;;;;;;15.61;58.03;101219.41;5022152;28;96832;-66
2022/10/14 03:24:01;;;;;;;28.95;15.88;;;;;;;15.52;57.87;101224.25;5025281;27;97954;-66
2022/10/14 03:26:28;;;;;;;28.90;16.83;;;;;;;15.58;57.74;101224.88;5026079;28;98963;-65
2022/10/14 03:28:54;;;;;;;34.38;17.33;;;;;;;15.15;59.04;101235.75;5022556;28;98042;-66
2022/10/14 03:31:20;;;;;;;25.60;16.13;;;;;;;15.20;58.84;101222.22;5025128;27;96812;-65
2022/10/14 03:33:47;;;;;;;28.05;16.02;;;;;;;15.00;59.35;101216.97;5024472;28;97530;-66
2022/10/14 03:36:13;;;;;;;30.52;16.17;;;;;;;14.76;60.22;101226.94;5025792;28;99252;-66
2022/10/14 03:38:40;;;;;;;25.95;16.40;;;;;;;14.85;60.05;101215.88;5024433;28;100667;-67
2022/10/14 03:41:07;;;;;;;29.17;16.65;;;;;;;14.98;59.56;101221.47;5024859;27;96889;-66
2022/10/14 03:43:34;;;;;;;26.75;15.95;;;;;;;15.10;59.15;101223.56;5024368;28;98851;-65
2022/10/14 03:46:00;;;;;;;31.38;17.10;;;;;;;14.85;60.01;101217.66;5026734;28;97777;-65
2022/10/14 03:48:26;;;;;;;25.02;16.58;;;;;;;14.93;59.92;101227.03;5019940;27;100012;-65
2022/10/14 03:50:53;;;;;;;24.38;15.27;;;;;;;14.62;60.39;101222.25;5025501;28;96847;-65
2022/10/14 03:53:19;;;;;;;28.10;16.88;;;;;;;14.36;61.05;101218.03;5025667;27;98830;-65
2022/10/14 03:55:46;;;;;;;28.02;16.10;;;;;;;14.53;60.83;101229.75;5024063;28;98907;-65
2022/10/14 03:58:13;;;;;;;26.58;15.88;;;;;;;14.26;61.51;101224.66;5024400;28;101772;-65
2022/10/14 04:00:40;;;;;;;26.38;17.02;;;;;;;14.31;61.46;101219.13;5024734;28;96776;-65
2022/10/14 04:03:06;;;;;;;27.92;15.68;;;;;;;14.19;62.08;101217.00;5025389;28;97166;-65
2022/10/14 04:05:33;;;;;;;25.30;16.30;;;;;;;14.45;61.51;101215.91;5023097;28;101287;-65
2022/10/14 04:08:00;;;;;;;28.95;16.05;;;;;;;14.38;61.07;101227.75;5017189;28;99298;-65
2022/10/14 04:10:27;;;;;;;31.38;16.85;;;;;;;14.43;61.21;101226.66;5014407;28;97881;-65
2022/10/14 04:12:54;;;;;;;25.20;16.08;;;;;;;14.10;62.16;101223.59;5014643;28;97677;-64
2022/10/14 04:15:22;;;;;;;25.35;15.93;;;;;;;14.41;61.38;101222.31;5013890;28;99262;-64
2022/10/14 04:17:49;;;;;;;25.17;15.95;;;;;;;14.24;61.73;101225.69;5015654;27;100939;-64
2022/10/14 04:20:16;;;;;;;29.50;15.98;;;;;;;14.36;61.27;101212.72;5015128;28;98731;-65
2022/10/14 04:22:42;;;;;;;29.30;16.30;;;;;;;14.53;60.95;101222.63;5017042;27;97989;-65
2022/10/14 04:25:10;;;;;;;25.63;16.75;;;;;;;14.64;60.40;101211.50;5015917;28;99034;-65
2022/10/14 04:27:36;;;;;;;27.45;16.70;;;;;;;14.71;60.25;101207.63;5026863;28;99161;-66
2022/10/14 04:30:02;;;;;;;30.35;16.90;;;;;;;14.90;59.67;101213.00;5028187;27;97492;-66
2022/10/14 04:32:30;;;;;;;30.25;15.75;;;;;;;14.92;59.56;101208.47;5028915;28;97017;-66
2022/10/14 04:34:57;;;;;;;32.38;17.08;;;;;;;14.59;60.22;101202.88;5029559;27;98978;-66
2022/10/14 04:37:23;;;;;;;27.52;15.77;;;;;;;14.67;60.03;101198.94;5028481;28;97733;-65
2022/10/14 04:39:50;;;;;;;23.23;16.02;;;;;;;14.83;59.72;101193.81;5030790;28;96826;-65
2022/10/14 04:42:16;;;;;;;31.70;16.60;;;;;;;14.93;59.38;101195.09;5025284;28;97487;-65
2022/10/14 04:44:42;;;;;;;28.63;16.98;;;;;;;14.65;60.22;101200.81;5031021;28;99761;-65
2022/10/14 04:47:09;;;;;;;27.70;16.02;;;;;;;14.98;59.42;101203.72;5027149;28;100398;-66
2022/10/14 04:49:37;;;;;;;26.00;15.25;;;;;;;14.92;59.28;101195.16;5030439;28;99137;-67
2022/10/14 04:52:03;;;;;;;27.52;16.02;;;;;;;14.72;59.55;101196.94;5030378;28;98960;-66
2022/10/14 04:54:30;;;;;;;30.25;15.90;;;;;;;14.62;60.09;101192.13;5025934;28;101728;-65
2022/10/14 04:56:56;;;;;;;31.45;15.98;;;;;;;14.83;59.75;101200.91;5029100;28;99359;-66
2022/10/14 04:59:22;;;;;;;29.35;16.65;;;;;;;14.82;60.06;101196.53;5031338;28;97482;-65
2022/10/14 05:01:49;;;;;;;28.85;16.83;;;;;;;14.71;60.41;101195.19;5025343;28;97167;-65
2022/10/14 05:04:15;;;;;;;31.20;16.38;;;;;;;15.02;59.30;101199.13;5018412;28;99436;-65
2022/10/14 05:06:43;;;;;;;28.63;16.00;;;;;;;14.77;59.90;101187.91;5018844;28;98958;-65
2022/10/14 05:09:09;;;;;;;26.77;16.45;;;;;;;14.97;59.52;101191.34;5015904;28;97536;-65
2022/10/14 05:11:35;;;;;;;26.40;16.05;;;;;;;14.86;59.72;101190.13;5015957;28;97449;-65
2022/10/14 05:14:02;;;;;;;24.40;15.73;;;;;;;15.10;59.14;101188.97;5014401;28;99408;-65
2022/10/14 05:16:28;;;;;;;29.17;16.90;;;;;;;15.21;58.93;101200.00;5017471;28;99987;-66
2022/10/14 05:18:56;;;;;;;36.35;16.67;;;;;;;15.03;59.18;101201.69;5017681;28;96826;-65
2022/10/14 05:21:22;;;;;;;30.65;15.55;;;;;;;14.86;59.69;101203.44;5014858;28;98554;-65
2022/10/14 05:23:50;;;;;;;33.55;15.40;;;;;;;14.95;59.23;101203.00;5015535;28;99796;-65
2022/10/14 05:26:16;;;;;;;27.88;15.70;;;;;;;14.76;60.55;101195.03;5017672;27;99159;-65
2022/10/14 05:28:43;;;;;;;31.48;16.45;;;;;;;14.87;59.75;101191.84;5023355;28;98610;-65
2022/10/14 05:31:10;;;;;;;23.65;14.95;;;;;;;14.79;60.33;101192.19;5013739;28;98369;-65
2022/10/14 05:33:36;;;;;;;25.77;15.38;;;;;;;15.03;59.90;101190.22;5016498;27;99565;-67
2022/10/14 05:36:03;;;;;;;28.50;14.88;;;;;;;15.09;59.39;101192.59;5013367;28;98922;-68
2022/10/14 05:38:32;;;;;;;28.63;15.40;;;;;;;15.10;59.56;101186.31;5015798;28;98889;-67
2022/10/14 05:40:59;;;;;;;31.02;15.48;;;;;;;15.10;59.48;101187.16;5015070;28;97209;-66
2022/10/14 05:43:26;;;;;;;26.20;14.90;;;;;;;15.21;59.02;101184.03;5014609;28;99163;-66
2022/10/14 05:45:53;;;;;;;30.42;15.80;;;;;;;15.35;58.90;101181.56;5015567;28;99442;-66
2022/10/14 05:48:19;;;;;;;28.00;15.57;;;;;;;15.01;59.75;101187.63;5016276;28;98530;-66
2022/10/14 05:50:46;;;;;;;31.05;16.48;;;;;;;15.45;58.80;101172.19;5016488;28;99082;-66
2022/10/14 05:53:12;;;;;;;32.40;16.33;;;;;;;15.47;58.69;101180.97;5016036;27;99362;-66
2022/10/14 05:55:40;;;;;;;38.35;15.88;;;;;;;15.44;58.77;101181.09;5014714;28;98809;-65
2022/10/14 05:58:07;;;;;;;32.47;14.98;;;;;;;15.53;58.71;101178.03;5023231;28;97577;-66
2022/10/14 06:00:34;;;;;;;26.42;16.45;;;;;;;15.35;59.65;101186.88;5015545;28;98763;-66
2022/10/14 06:03:00;;;;;;;29.20;15.05;;;;;;;15.24;59.91;101178.53;5015726;28;99637;-65
2022/10/14 06:05:27;;;;;;;32.90;15.85;;;;;;;15.44;59.40;101175.78;5015859;28;99861;-66
2022/10/14 06:07:53;;;;;;;34.30;16.95;;;;;;;15.40;59.30;101184.88;5014324;28;97644;-65
2022/10/14 06:10:20;;;;;;;34.75;15.48;;;;;;;15.48;59.49;101185.34;5014387;28;98959;-67
2022/10/14 06:12:46;;;;;;;31.80;15.90;;;;;;;15.50;59.14;101186.13;5017982;28;99242;-65
2022/10/14 06:15:14;;;;;;;31.15;16.45;;;;;;;15.53;59.08;101190.50;5015406;27;98965;-66
2022/10/14 06:17:40;;;;;;;29.48;14.93;;;;;;;15.70;59.00;101187.84;5026898;27;97263;-67
2022/10/14 06:20:08;;;;;;;24.77;15.18;;;;;;;15.71;58.63;101180.72;5026648;27;96947;-66
2022/10/14 06:22:34;;;;;;;26.98;15.02;;;;;;;15.75;58.56;101183.13;5022953;28;97642;-65
2022/10/14 06:25:00;;;;;;;30.33;15.93;;;;;;;15.77;58.47;101185.72;5026201;27;98965;-66
2022/10/14 06:27:27;;;;;;;29.83;14.65;;;;;;;16.05;58.01;101177.22;5016915;27;96873;-67
2022/10/14 06:29:54;;;;;;;29.80;15.23;;;;;;;16.12;57.61;101181.28;5024809;27;97250;-65
2022/10/14 06:32:21;;;;;;;33.78;17.65;;;;;;;15.94;57.76;101185.78;5024376;27;102643;-66
2022/10/14 06:34:48;;;;;;;28.98;15.73;;;;;;;16.12;57.74;101179.50;5024067;27;99205;-67
2022/10/14 06:37:14;;;;;;;27.08;15.35;;;;;;;16.04;58.11;101180.81;5024922;27;97332;-65
2022/10/14 06:39:43;;;;;;;29.38;16.50;;;;;;;15.90;57.90;101181.50;5023722;27;96800;-68
2022/10/14 06:42:09;;;;;;;30.77;16.10;;;;;;;16.10;58.10;101180.50;5024233;27;100052;-72
2022/10/14 06:44:36;;;;;;;25.60;16.38;;;;;;;15.98;57.85;101182.00;5023121;27;98772;-69
2022/10/14 06:47:02;;;;;;;31.70;16.23;;;;;;;16.43;56.99;101180.53;5019646;27;97354;-67
2022/10/14 06:49:30;;;;;;;36.70;16.67;;;;;;;16.38;57.10;101186.13;5021284;27;97341;-67
2022/10/14 06:51:56;;;;;;;28.73;15.10;;;;;;;16.62;56.57;101184.00;5023999;27;100518;-66
2022/10/14 06:54:23;;;;;;;27.42;15.20;;;;;;;16.50;56.81;101187.28;5019325;27;98756;-68
2022/10/14 06:56:49;;;;;;;30.90;14.35;;;;;;;16.58;56.44;101188.59;5021440;27;99595;-65
2022/10/14 06:59:15;;;;;;;27.92;16.65;;;;;;;16.59;56.76;101193.00;5021447;27;97325;-66
2022/10/14 07:01:42;;;;;;;36.25;16.88;;;;;;;16.61;56.51;101192.94;5020134;27;98970;-66
2022/10/14 07:04:08;;;;;;;28.25;15.52;;;;;;;16.43;56.93;101193.88;5026080;27;99231;-66
2022/10/14 07:06:37;;;;;;;32.58;16.42;;;;;;;16.73;56.27;101197.63;5018652;27;98796;-66
2022/10/14 07:09:04;;;;;;;29.75;15.52;;;;;;;16.78;56.25;101200.06;5022287;27;97070;-66
2022/10/14 07:11:30;;;;;;;27.50;15.65;;;;;;;16.89;56.02;101200.31;5016714;27;97637;-67
2022/10/14 07:13:57;;;;;;;24.60;16.13;;;;;;;16.68;56.52;101199.66;5017543;27;99344;-67
2022/10/14 07:16:24;;;;;;;27.98;16.02;;;;;;;16.71;56.68;101199.53;5023217;28;97042;-69
2022/10/14 07:18:50;;;;;;;28.80;16.17;;;;;;;16.90;56.00;101204.72;5019720;27;98612;-66
2022/10/14 07:21:17;;;;;;;27.55;16.67;;;;;;;16.81;56.45;101211.41;5023370;27;98083;-66
2022/10/14 07:23:45;;;;;;;30.33;15.75;;;;;;;16.87;56.48;101200.41;5020910;27;98959;-66
2022/10/14 07:26:11;;;;;;;27.05;16.35;;;;;;;16.84;56.83;101205.06;5018994;28;97195;-66
2022/10/14 07:28:38;;;;;;;28.05;15.57;;;;;;;16.91;55.98;101203.78;5020582;27;97917;-66
2022/10/14 07:31:07;;;;;;;28.58;16.05;;;;;;;16.79;56.35;101209.78;5021444;27;99994;-66
2022/10/14 07:33:35;;;;;;;26.70;15.57;;;;;;;17.20;55.42;101215.53;5022912;27;98840;-66
2022/10/14 07:36:01;;;;;;;33.42;15.88;;;;;;;17.05;55.73;101215.44;5021541;27;97411;-66
2022/10/14 07:38:28;;;;;;;28.55;15.55;;;;;;;16.93;56.48;101224.13;5009185;27;98043;-67
2022/10/14 07:41:04;;;;;;;27.88;16.52;;;;;;;17.24;55.88;101219.75;5023263;27;99224;-67
2022/10/14 07:43:32;;;;;;;32.60;16.38;;;;;;;17.16;56.02;101216.63;5023623;27;98763;-67
2022/10/14 07:46:01;;;;;;;28.65;15.95;;;;;;;17.33;55.54;101213.88;5019813;27;98212;-67
2022/10/14 07:48:29;;;;;;;29.73;16.10;;;;;;;17.10;56.10;101212.50;5019164;27;97007;-68
2022/10/14 07:50:55;;;;;;;27.13;15.50;;;;;;;17.47;55.34;101213.97;5025429;27;99716;-67
2022/10/14 07:53:22;;;;;;;29.33;16.13;;;;;;;17.48;55.42;101213.03;5025555;27;98336;-67
2022/10/14 07:55:51;;;;;;;28.30;16.35;;;;;;;17.67;54.85;101204.84;5026364;27;97171;-68
2022/10/14 07:58:23;;;;;;;27.80;16.80;;;;;;;17.45;55.43;101213.22;5029179;27;97974;-67
2022/10/14 08:00:50;;;;;;;30.85;15.07;;;;;;;17.42;55.69;101210.69;5026150;27;100101;-67
2022/10/14 08:03:18;;;;;;;33.55;16.38;;;;;;;17.60;55.24;101200.78;5017255;27;98897;-66
2022/10/14 08:09:35;;;;;;;30.83;16.35;;;;;;;17.68;54.97;101204.75;5026508;27;98512;-69
2022/10/14 08:12:23;;;;;;;23.67;15.73;;;;;;;17.70;54.58;101199.34;5031556;27;99323;-67
2022/10/14 08:14:55;;;;;;;33.45;16.88;;;;;;;17.73;54.85;101204.50;5030639;27;98854;-66
2022/10/14 08:17:21;;;;;;;29.08;15.73;;;;;;;17.57;55.45;101217.84;5029651;27;97185;-66
2022/10/14 08:19:49;;;;;;;29.63;17.30;;;;;;;17.54;55.67;101210.88;5031650;27;96903;-67
2022/10/14 08:22:16;;;;;;;31.90;17.45;;;;;;;17.74;55.41;101209.75;5028954;27;99210;-66
2022/10/14 08:24:43;;;;;;;33.50;16.88;;;;;;;18.25;54.38;101204.94;5028483;27;99143;-67
2022/10/14 08:27:10;;;;;;;27.27;17.02;;;;;;;18.54;53.47;101196.03;5029154;27;96768;-67
2022/10/14 08:29:36;;;;;;;33.17;16.60;;;;;;;18.96;52.28;101202.38;5029759;27;96840;-66
2022/10/14 08:32:04;;;;;;;98.57;17.88;;;;;;;19.29;51.40;101197.56;5030220;27;99236;-66
2022/10/14 08:34:31;;;;;;;30.23;16.58;;;;;;;19.08;51.28;101193.56;5026552;27;99363;-68
2022/10/14 08:36:57;;;;;;;26.25;15.60;;;;;;;19.44;51.00;101191.19;5028576;27;97154;-67
2022/10/14 08:39:23;;;;;;;30.70;15.88;;;;;;;19.36;50.98;101189.97;5029386;27;96952;-67
2022/10/14 08:42:21;;;;;;;28.48;16.25;;;;;;;19.86;49.55;101186.66;5031494;27;99001;-67
2022/10/14 08:45:01;;;;;;;30.45;14.50;;;;;;;20.29;48.35;101177.41;5028755;27;99122;-65
2022/10/14 08:47:36;;;;;;;29.83;14.98;;;;;;;20.50;47.85;101169.72;5018781;27;101958;-66
2022/10/14 08:50:09;;;;;;;22.77;14.05;;;;;;;20.82;47.44;101177.31;5029467;27;96990;-66
2022/10/14 08:52:41;;;;;;;27.85;15.02;;;;;;;20.37;48.15;101173.38;5024361;27;100570;-67
2022/10/14 08:55:22;;;;;;;29.80;14.70;;;;;;;20.36;47.68;101163.59;5023475;27;98774;-67
2022/10/14 08:57:56;;;;;;;27.67;13.98;;;;;;;20.40;48.30;101167.78;5024925;27;97538;-67
2022/10/14 09:00:22;;;;;;;25.25;14.93;;;;;;;20.34;48.38;101171.78;5030237;27;96904;-66
2022/10/14 09:02:51;;;;;;;28.17;16.10;;;;;;;20.04;48.67;101173.81;5023992;27;99351;-66
2022/10/14 09:05:21;;;;;;;25.50;15.20;;;;;;;19.97;48.49;101180.56;5022888;27;98387;-67
2022/10/14 09:07:49;;;;;;;36.08;15.30;;;;;;;20.28;48.07;101178.34;5026608;27;96727;-68
2022/10/14 09:10:25;;;;;;;31.10;15.02;;;;;;;20.56;47.74;101179.16;5023912;27;97050;-66
2022/10/14 09:12:52;;;;;;;22.47;14.30;;;;;;;20.71;47.58;101183.47;5024484;27;99016;-67
2022/10/14 09:15:25;;;;;;;26.88;14.30;;;;;;;20.56;47.77;101174.66;5022488;27;99265;-67
2022/10/14 09:18:03;;;;;;;30.63;15.43;;;;;;;20.82;47.03;101171.94;5024379;27;99035;-67
2022/10/14 09:20:30;;;;;;;27.08;14.50;;;;;;;20.61;47.33;101171.66;5023236;27;98774;-67
2022/10/14 09:23:14;;;;;;;22.02;13.93;;;;;;;20.21;47.74;101168.19;5023572;27;99179;-66
2022/10/14 09:25:46;;;;;;;23.40;13.98;;;;;;;20.01;48.18;101169.53;5018230;27;98830;-66
2022/10/14 09:28:12;;;;;;;23.30;13.95;;;;;;;19.88;49.03;101174.03;5022161;27;98111;-67
2022/10/14 09:30:39;;;;;;;31.02;15.20;;;;;;;19.85;48.91;101163.47;5027578;27;97347;-67
2022/10/14 09:33:16;;;;;;;28.40;14.05;;;;;;;20.19;48.31;101167.41;5022744;27;100116;-66
2022/10/14 09:35:43;;;;;;;26.67;14.25;;;;;;;20.06;48.43;101162.03;5019046;27;99155;-66
2022/10/14 09:38:11;;;;;;;30.00;15.57;;;;;;;20.30;48.28;101165.72;5023537;27;97365;-67
2022/10/14 09:40:41;;;;;;;26.00;14.18;;;;;;;20.33;48.03;101156.63;5021034;27;98434;-67
2022/10/14 09:43:15;;;;;;;27.70;15.48;;;;;;;20.55;47.98;101162.19;5028157;27;101548;-66
2022/10/14 09:45:51;;;;;;;30.27;14.98;;;;;;;20.88;46.96;101156.25;5019709;27;99156;-67
2022/10/14 09:48:31;;;;;;;28.00;13.50;;;;;;;20.43;47.70;101154.16;5023917;27;96832;-67
2022/10/14 09:50:58;;;;;;;24.00;14.20;;;;;;;20.27;47.84;101149.84;5025765;27;97156;-67
2022/10/14 09:53:29;;;;;;;30.27;14.88;;;;;;;20.51;47.87;101144.59;5023728;27;99395;-67
2022/10/14 09:55:58;;;;;;;27.77;15.48;;;;;;;20.37;48.09;101143.84;5022955;27;99812;-67
2022/10/14 09:58:31;;;;;;;30.58;14.93;;;;;;;20.07;48.95;101144.97;5022820;27;97686;-68
2022/10/14 10:01:00;;;;;;;27.30;13.80;;;;;;;20.42;48.24;101139.00;5021340;27;96902;-67
2022/10/14 10:03:31;;;;;;;27.85;15.10;;;;;;;20.26;48.38;101140.06;5024926;27;98962;-66
2022/10/14 10:06:06;;;;;;;27.40;15.43;;;;;;;20.21;48.85;101141.34;5020757;27;98828;-67
2022/10/14 10:08:34;;;;;;;28.48;15.02;;;;;;;20.62;48.04;101133.94;5019886;27;97537;-69
2022/10/14 10:11:04;;;;;;;26.35;14.73;;;;;;;20.49;48.27;101129.56;5018312;27;97176;-67
2022/10/14 10:13:38;;;;;;;26.10;14.73;;;;;;;20.75;47.44;101136.59;5022558;27;98535;-66
2022/10/14 10:16:07;;;;;;;27.17;14.88;;;;;;;20.65;47.98;101132.88;5020032;27;98856;-67
2022/10/14 10:18:35;;;;;;;28.00;15.15;;;;;;;21.06;47.26;101129.91;5023168;27;97143;-67
2022/10/14 10:21:05;;;;;;;31.98;15.20;;;;;;;21.08;47.41;101127.94;5021740;27;97079;-68
2022/10/14 10:23:33;;;;;;;22.60;14.77;;;;;;;21.12;47.38;101128.59;5020409;27;98529;-67
2022/10/14 10:26:15;;;;;;;31.67;15.85;;;;;;;21.13;47.70;101124.94;5021676;27;99998;-67
2022/10/14 10:28:45;;;;;;;25.92;15.27;;;;;;;21.58;46.71;101123.38;5020747;27;98017;-67
2022/10/14 10:31:21;;;;;;;25.33;15.55;;;;;;;21.48;46.71;101118.66;5026048;27;96977;-66
2022/10/14 10:33:56;;;;;;;26.53;15.23;;;;;;;21.16;47.12;101122.91;5022225;27;99059;-66
2022/10/14 10:36:30;;;;;;;27.57;14.33;;;;;;;21.19;47.45;101119.13;5018696;27;99037;-68
2022/10/14 10:39:05;;;;;;;22.58;15.43;;;;;;;20.96;48.27;101120.78;5022407;27;97576;-66
2022/10/14 10:41:44;;;;;;;27.42;15.68;;;;;;;21.20;47.83;101120.84;5019853;27;98355;-66
2022/10/14 10:44:31;;;;;;;31.10;16.23;;;;;;;21.29;48.00;101133.59;5022561;27;99336;-67
2022/10/14 10:47:17;;;;;;;25.63;15.00;;;;;;;21.23;47.63;101132.22;5022632;27;98781;-69
2022/10/14 10:50:03;;;;;;;26.08;14.80;;;;;;;21.19;47.59;101132.56;5023776;27;97611;-68
2022/10/14 10:52:40;;;;;;;21.17;14.30;;;;;;;21.53;46.85;101128.25;5025533;27;97573;-68
2022/10/14 10:55:16;;;;;;;21.05;12.82;;;;;;;21.49;46.41;101124.91;5014884;27;98929;-66
2022/10/14 10:57:55;;;;;;;21.95;12.50;;;;;;;21.50;46.96;101120.38;5019057;27;99373;-66
2022/10/14 11:00:22;;;;;;;25.50;14.10;;;;;;;21.60;46.45;101118.72;5022517;27;97573;-67
2022/10/14 11:03:14;;;;;;;22.15;12.52;;;;;;;21.62;46.07;101116.78;5020614;27;98396;-67
2022/10/14 11:05:57;;;;;;;24.80;12.55;;;;;;;21.83;45.71;101118.69;5015314;27;98701;-67
2022/10/14 11:14:26;;;;;;;24.85;12.43;;;;;;;21.73;45.80;101109.59;5014700;27;97488;-65
2022/10/14 11:17:01;;;;;;;24.27;14.07;;;;;;;21.45;46.80;101097.41;5019670;27;99141;-66
2022/10/14 11:19:36;;;;;;;22.27;12.52;;;;;;;21.91;45.76;101106.50;5017712;27;98873;-66
2022/10/14 11:22:12;;;;;;;18.60;11.88;;;;;;;21.85;46.23;101110.53;5018439;27;97430;-66
2022/10/14 11:24:53;;;;;;;21.70;13.83;;;;;;;21.87;45.97;101111.22;5014941;27;98809;-68
2022/10/14 11:27:26;;;;;;;19.90;13.32;;;;;;;21.86;46.16;101115.75;5016993;27;99378;-67
2022/10/14 11:30:14;;;;;;;20.65;12.10;;;;;;;21.98;45.94;101107.78;5023297;27;100871;-66